Weather reports worldwide

Advertisment
Aragues Del Puerto, Spain (8095): temperature & dewpoint: 16.06.2018 15:00:00 - 22.06.2018 15:00:00 (CEST)Aragues Del Puerto, Spain (8095): wind speed & gusts: 16.06.2018 15:00:00 - 22.06.2018 15:00:00 (CEST)Aragues Del Puerto, Spain (8095): wind direction: 16.06.2018 15:00:00 - 22.06.2018 15:00:00 (CEST)Aragues Del Puerto, Spain (8095): visibility: 16.06.2018 15:00:00 - 22.06.2018 15:00:00 (CEST)Aragues Del Puerto, Spain (8095): sunshine duration: 16.06.2018 15:00:00 - 22.06.2018 15:00:00 (CEST)Aragues Del Puerto, Spain (8095): precipitation: 16.06.2018 15:00:00 - 22.06.2018 15:00:00 (CEST)
Date & Time tt [°C] td [°C] ff [km/h] ff [kn] fx [km/h] fx [kn] dd vv [km] sd [min] rr [mm]
22.06.2018 15:00:00 - - - - - - - - - -
22.06.2018 14:00:00 26,8 12,1 8 4 25 13 WSW 20 60 -
22.06.2018 13:00:00 25,5 11,7 14 8 25 14 SW 20 60 0,0
22.06.2018 12:00:00 25,7 12,5 6 4 14 8 S 20 60 0,0
22.06.2018 11:00:00 24,0 13,0 8 4 12 6 SE 20 60 0,0
22.06.2018 10:00:00 22,2 12,7 4 2 8 4 S 20 60 0,0
22.06.2018 09:00:00 19,2 12,0 3 2 11 6 NE 20 60 0,0
22.06.2018 08:00:00 16,2 10,3 6 3 8 5 NNE 20 12 -
22.06.2018 07:00:00 14,6 9,2 1 1 9 5 SSE 20 0 0,0
22.06.2018 06:00:00 14,8 8,9 3 1 14 7 NNW 20 0 0,0
22.06.2018 05:00:00 15,5 9,4 3 2 15 8 N 20 0 0,0
22.06.2018 04:00:00 16,4 9,8 5 3 17 9 NNE 20 0 0,0
22.06.2018 03:00:00 17,1 9,8 7 4 11 6 NNE 20 0 0,0
22.06.2018 02:00:00 17,3 10,2 2 1 9 5 N 20 0 -
22.06.2018 01:00:00 18,5 10,3 5 3 19 10 E 20 0 0,0
22.06.2018 00:00:00 20,6 10,6 7 4 36 19 NE 20 0 0,0
21.06.2018 23:00:00 22,3 10,2 16 9 33 18 NNE 20 0 0,0
21.06.2018 22:00:00 23,2 9,6 14 7 29 16 NNE 20 0 0,0
21.06.2018 21:00:00 24,0 10,6 16 8 33 18 N 20 0 0,0
21.06.2018 20:00:00 24,0 12,0 15 8 29 16 N 20 36 -
21.06.2018 19:00:00 21,4 17,4 3 2 13 7 NNW 20 4 0,0
21.06.2018 18:00:00 21,1 16,5 13 7 24 13 NE 20 14 1,0
21.06.2018 17:00:00 28,0 12,7 11 6 31 17 WSW 20 38 0,0
21.06.2018 16:00:00 28,4 12,3 15 8 30 16 SW 20 46 0,0
21.06.2018 15:00:00 29,0 10,6 8 4 26 14 W 20 35 0,0
21.06.2018 14:00:00 27,5 10,6 10 5 30 16 SW 20 56 -
21.06.2018 13:00:00 26,5 12,2 7 4 27 15 W 20 46 0,0
21.06.2018 12:00:00 26,6 12,6 11 6 22 12 SW 20 60 0,0
21.06.2018 11:00:00 25,3 11,8 10 5 19 10 WSW 20 59 0,0
21.06.2018 10:00:00 23,5 13,1 4 2 18 10 E 20 60 0,0
21.06.2018 09:00:00 20,3 12,5 11 6 17 9 NE 20 58 0,0
21.06.2018 08:00:00 18,8 11,9 6 3 12 7 NE 20 12 -
21.06.2018 07:00:00 17,1 11,1 5 3 16 9 N 20 0 0,0
21.06.2018 06:00:00 17,2 11,0 4 2 14 7 N 20 0 0,0
21.06.2018 05:00:00 17,9 11,0 9 5 17 9 NNE 20 0 0,0
21.06.2018 04:00:00 18,0 10,6 6 3 19 10 N 20 0 0,0
21.06.2018 03:00:00 18,4 11,4 8 4 21 12 NNE 20 0 0,0
21.06.2018 02:00:00 18,6 12,1 9 5 19 10 NNE 20 0 -
21.06.2018 01:00:00 19,3 13,3 4 2 18 10 N 20 0 0,0
21.06.2018 00:00:00 20,0 13,5 9 5 21 11 N 20 0 0,0
20.06.2018 23:00:00 20,0 13,9 11 6 17 9 NNE 20 0 0,0
20.06.2018 22:00:00 20,2 14,3 9 5 20 11 NNE 20 0 0,0
20.06.2018 21:00:00 20,5 14,8 11 6 26 14 NNE 20 0 0,0
20.06.2018 20:00:00 22,0 14,9 10 6 29 16 NNE 20 0 -
20.06.2018 19:00:00 25,4 13,3 6 3 19 11 SSW 20 3 0,0
20.06.2018 18:00:00 27,0 11,9 8 5 23 13 S 20 29 0,0
20.06.2018 17:00:00 28,0 12,3 10 5 21 11 SSE 20 57 0,0
20.06.2018 16:00:00 27,7 13,3 9 5 25 13 S 20 38 0,0
20.06.2018 15:00:00 25,4 12,2 10 6 24 13 NE 20 26 0,0
20.06.2018 14:00:00 27,6 11,6 8 5 22 12 SSE 20 60 -
20.06.2018 13:00:00 26,0 11,3 6 3 18 10 E 20 60 0,0
20.06.2018 12:00:00 25,4 11,2 7 4 17 9 SSW 20 60 0,0
20.06.2018 11:00:00 24,5 11,4 8 4 17 9 S 20 60 0,0
20.06.2018 10:00:00 23,5 12,2 3 1 14 8 E 20 60 0,0
20.06.2018 09:00:00 19,8 12,3 10 5 20 11 NNE 20 60 0,0
20.06.2018 08:00:00 17,5 11,8 11 6 22 12 NNE 20 13 -
20.06.2018 07:00:00 16,2 11,1 16 8 23 12 NNE 20 0 0,0
20.06.2018 06:00:00 16,3 11,7 15 8 23 12 NNE 20 0 0,0
20.06.2018 05:00:00 16,5 12,0 14 7 21 11 NNE 20 0 0,0
20.06.2018 04:00:00 16,6 12,1 8 4 16 9 N 20 0 0,0
20.06.2018 03:00:00 16,5 12,0 4 2 15 8 N 20 0 0,0
20.06.2018 02:00:00 17,9 12,1 10 5 19 10 N 20 0 -
20.06.2018 01:00:00 17,9 12,3 14 8 23 12 NNE 20 0 0,0
20.06.2018 00:00:00 18,1 12,5 15 8 24 13 NNE 20 0 0,0
19.06.2018 23:00:00 18,9 13,1 12 6 21 11 NNE 20 0 0,0
19.06.2018 22:00:00 20,0 13,7 8 4 13 7 NNE 20 0 0,0
19.06.2018 21:00:00 22,9 12,2 5 3 16 9 WNW 20 0 0,0
19.06.2018 20:00:00 24,3 11,6 9 5 23 12 SW 20 53 -
19.06.2018 19:00:00 25,4 11,9 13 7 21 12 SW 20 60 0,0
19.06.2018 18:00:00 26,4 11,7 9 5 25 13 SSW 20 60 0,0
19.06.2018 17:00:00 26,4 11,7 10 5 23 12 SSW 20 60 0,0
19.06.2018 16:00:00 26,1 11,8 11 6 23 12 S 20 60 0,0
19.06.2018 15:00:00 24,9 10,8 11 6 26 14 WSW 20 60 0,0
19.06.2018 14:00:00 24,4 11,0 10 6 23 12 SW 20 60 -
19.06.2018 13:00:00 24,0 10,6 9 5 19 11 SW 20 60 0,0
19.06.2018 12:00:00 23,2 9,2 8 4 16 9 SSW 20 60 0,0
19.06.2018 11:00:00 21,4 10,9 5 3 11 6 SSE 20 60 0,0
19.06.2018 10:00:00 19,3 10,0 4 2 8 4 ESE 20 60 0,0
19.06.2018 09:00:00 16,4 8,9 3 2 8 5 E 20 60 0,0
19.06.2018 08:00:00 13,4 7,8 3 2 8 4 NNE 20 13 -
19.06.2018 07:00:00 10,8 6,4 2 1 9 5 NNE 20 0 0,0
19.06.2018 06:00:00 11,2 5,8 2 1 11 6 N 20 0 0,0
19.06.2018 05:00:00 11,6 7,1 3 2 10 6 N 20 0 0,0
19.06.2018 04:00:00 12,3 7,6 5 3 10 6 WSW 20 0 0,0
19.06.2018 03:00:00 12,3 7,1 3 2 11 6 W 20 0 0,0
19.06.2018 02:00:00 13,0 7,3 4 2 11 6 NNE 20 0 -
19.06.2018 01:00:00 12,9 7,1 4 2 13 7 NNE 20 0 0,0
19.06.2018 00:00:00 14,3 7,1 8 4 14 8 N 20 0 0,0
18.06.2018 23:00:00 14,1 9,2 2 1 5 3 NNW 20 0 0,0
18.06.2018 22:00:00 16,3 9,3 3 1 10 5 S 20 0 0,0
18.06.2018 21:00:00 18,9 8,5 12 6 32 17 ENE 20 0 0,0
18.06.2018 20:00:00 20,4 5,6 13 7 35 19 NNE 20 53 -
18.06.2018 19:00:00 22,7 3,8 16 9 43 23 NNE 20 60 0,0
18.06.2018 18:00:00 23,0 5,5 24 13 44 24 NNE 20 60 0,0
18.06.2018 17:00:00 24,0 3,8 25 14 44 24 NE 20 60 0,0
18.06.2018 16:00:00 24,5 4,3 19 10 42 23 NE 20 60 0,0
18.06.2018 15:00:00 23,9 4,8 23 12 42 23 NE 20 60 0,0
18.06.2018 14:00:00 23,4 5,3 22 12 42 23 NE 20 60 -
18.06.2018 13:00:00 22,5 6,2 23 12 44 24 NNE 20 60 0,0
18.06.2018 12:00:00 21,5 4,5 28 15 48 26 NNE 20 60 0,0
18.06.2018 11:00:00 21,1 3,8 22 12 37 20 NNE 20 60 0,0
18.06.2018 10:00:00 18,6 6,7 5 3 9 5 SSE 20 60 0,0
18.06.2018 09:00:00 16,2 5,1 4 2 11 6 SSE 20 60 0,0
18.06.2018 08:00:00 12,9 4,3 2 1 8 5 S 20 13 -
18.06.2018 07:00:00 10,9 3,4 4 2 11 6 ENE 20 0 0,0
18.06.2018 06:00:00 10,6 2,9 3 2 13 7 NE 20 0 0,0
18.06.2018 05:00:00 11,0 3,8 4 2 11 6 E 20 0 0,0
18.06.2018 04:00:00 11,6 3,0 4 2 9 5 WNW 20 0 0,0
18.06.2018 03:00:00 11,7 2,9 4 2 9 5 WSW 20 0 0,0
18.06.2018 02:00:00 12,2 3,9 2 1 8 4 N 20 0 -
18.06.2018 01:00:00 12,8 5,0 5 3 12 7 SW 20 0 0,0
18.06.2018 00:00:00 13,1 5,8 4 2 10 5 W 20 0 0,0
17.06.2018 23:00:00 13,9 6,5 4 2 11 6 ESE 20 0 0,0
17.06.2018 22:00:00 16,3 5,8 5 3 29 16 SW 20 0 0,0
17.06.2018 21:00:00 19,0 3,2 18 10 34 18 N 20 0 0,0
17.06.2018 20:00:00 20,2 0,6 11 6 53 29 N 20 53 -
17.06.2018 19:00:00 21,3 -1,2 29 16 45 25 NNE 20 60 0,0
17.06.2018 18:00:00 23,4 4,8 9 5 26 14 WSW 20 60 0,0
17.06.2018 17:00:00 23,2 4,1 14 8 38 21 WSW 20 60 0,0
17.06.2018 16:00:00 22,9 6,5 15 8 31 17 SW 20 60 0,0
17.06.2018 15:00:00 22,3 9,0 10 5 26 14 SSW 20 60 0,0
17.06.2018 14:00:00 21,0 9,6 12 6 22 12 SSE 20 60 -
17.06.2018 13:00:00 19,8 8,5 8 5 19 10 SSW 20 60 0,0
17.06.2018 12:00:00 18,8 8,1 6 3 15 8 SE 20 60 0,0
17.06.2018 11:00:00 17,2 6,7 4 2 11 6 S 20 60 0,0
17.06.2018 10:00:00 15,1 7,4 4 2 8 4 SSE 20 60 0,0
17.06.2018 09:00:00 13,0 7,3 3 2 7 4 E 20 60 0,0
17.06.2018 08:00:00 9,6 6,2 2 1 5 3 NE 20 13 -
17.06.2018 07:00:00 8,1 5,0 5 3 8 4 NNE 20 0 0,0
17.06.2018 06:00:00 8,8 5,0 3 2 9 5 NE 20 0 0,0
17.06.2018 05:00:00 8,6 5,5 4 2 8 4 N 20 0 0,0
17.06.2018 04:00:00 9,3 5,8 2 1 5 3 WNW 20 0 0,0
17.06.2018 03:00:00 9,6 5,8 3 2 9 5 WSW 20 0 0,0
17.06.2018 02:00:00 10,2 5,9 1 1 10 5 NE 20 0 -
17.06.2018 01:00:00 11,2 6,5 4 2 14 7 NNE 20 0 0,0
17.06.2018 00:00:00 11,8 6,2 4 2 15 8 N 20 0 0,0
16.06.2018 23:00:00 12,8 6,5 5 3 13 7 NNE 20 0 0,0
16.06.2018 22:00:00 14,5 7,6 3 1 7 4 N 20 0 0,0
16.06.2018 21:00:00 18,2 7,6 9 5 16 9 NE 20 0 0,0
16.06.2018 20:00:00 21,0 5,8 6 4 22 12 SW 20 52 -
16.06.2018 19:00:00 22,2 8,7 13 7 26 14 WSW 20 60 0,0
16.06.2018 18:00:00 22,8 10,9 11 6 30 16 WSW 20 58 0,0
16.06.2018 17:00:00 22,7 12,3 14 8 30 16 SW 20 60 0,0
16.06.2018 16:00:00 23,3 12,0 14 7 33 18 SSW 20 57 0,0
16.06.2018 15:00:00 22,6 11,7 9 5 23 12 WSW 20 44 0,0

tt = temperature
td = dewpoint
ff = wind speed
fx = gusts
dd = wind direction
vv = visibility
sd = sunshine duration
rr = precipitation

Next stations